Pagrindinis puslapis
METAR-TAF:

METAR-TAF

Oro uostai :

Montichiari

Breša, Italija

platuma: 45-24-02N, ilguma: 010-18-59E, Aukštis: 104 m

Dabartinis oras

Ataskaita buvo paskelbta 25 minutes, ne 03:50 UTC
Vėjas 4 kt iš Vakarų/Šiaurės Vakarų
Temperatūra 6°C
Drėgmė 93%
Slėgis 1021 hPa
Matomumas: 6000 m
Išsisklaidę debesys ne aukštis 6000 ft
lietus

METAR: LIPO 180350Z 30004KT 6000 -RA SCT060 06/05 Q1021

Laikas: 05:15 (04:15 UTC)

Prognozė

Ataskaita buvo paskelbta 5 valandos ir 15 minutes, ne 23:00 UTC
Prognozė galioja nuo 18 metu 00 UTC su 18 metu 24 UTC
Vėjas 5 kt nuo kintamojo kryptimis
Matomumas: 5000 m
Išsisklaidę debesys ne aukštis 2000 ft
Su prošvaistėmis ne aukštis 5000 ft
lietus
Tapsmas
nuo 18 metu 15 UTC su 18 metu 18 UTC
Matomumas: 7000 m

TAF: LIPO 172300Z 1800/1824 VRB05KT 5000 RA SCT020 BKN050 BECMG 1815/1818 7000 NSW

Orai ataskaitas ir orų prognozės (METAR, TAF).

turimą stotys yra geltonos ir raudonos taškus žemėlapyje.

Perkelti pele per norėdami pamatyti stoties vardą.

Tada spustelėkite, norėdami matyti oro stebėjimo ir prognozės.

Norėdami pakeisti žemėlapį: spustelėkite ant žalios mygtukų su juodo kryžiaus žemyn,; žalią mygtuką su brūkšneliu, jei norite nutolinti; arba žalių rodyklių gretimoms žemėlapius.


METAR-TAF: